Time;durP1;ratioP1;P1;durP2;ratioP2;P2;SDS_P1;SDS_P2;PMS_P1;PMS_P2;Temp;Humidity;BMP_temperature;BMP_pressure;BME280_temperature;BME280_humidity;BME280_pressure;Samples;Min_cycle;Max_cycle;Signal;HPM_P1;HPM_P2
2022/01/13 00:00:52;;;;;;;33.17;14.93;;;-6.80;99.90;;;;;;5094514;28;20039;-78
2022/01/13 00:03:18;;;;;;;35.85;16.40;;;-6.80;99.90;;;;;;5094483;28;20031;-78
2022/01/13 00:05:44;;;;;;;35.58;15.10;;;-6.80;99.90;;;;;;5094433;28;20020;-78
2022/01/13 00:08:09;;;;;;;40.83;15.55;;;-6.80;99.90;;;;;;5093207;28;20035;-81
2022/01/13 00:10:35;;;;;;;33.00;14.57;;;-6.80;99.90;;;;;;5093226;28;20077;-78
2022/01/13 00:13:07;;;;;;;32.83;14.45;;;-6.70;99.90;;;;;;5094080;28;20363;-80
2022/01/13 00:16:24;;;;;;;44.67;16.20;;;-6.70;99.90;;;;;;5093117;28;20032;-77
2022/01/13 00:18:39;;;;;;;33.63;14.77;;;-6.60;99.90;;;;;;5091912;28;20040;-80
2022/01/13 00:21:17;;;;;;;37.95;15.85;;;-6.60;99.90;;;;;;5094058;28;20097;-78
2022/01/13 00:23:45;;;;;;;35.92;15.50;;;-6.50;99.90;;;;;;5092920;28;20081;-79
2022/01/13 00:26:18;;;;;;;35.75;15.68;;;-6.50;99.90;;;;;;5092927;28;20024;-78
2022/01/13 00:28:47;;;;;;;34.70;14.38;;;-6.50;99.90;;;;;;5092413;28;20490;-78
2022/01/13 00:31:13;;;;;;;39.88;15.88;;;-6.40;99.90;;;;;;5092283;28;20066;-79
2022/01/13 00:33:44;;;;;;;42.83;16.52;;;-6.40;99.90;;;;;;5092702;28;20073;-81
2022/01/13 00:36:10;;;;;;;32.22;14.55;;;-6.30;99.90;;;;;;5093969;28;20028;-80
2022/01/13 00:38:35;;;;;;;31.58;14.73;;;-6.20;99.90;;;;;;5092424;28;20451;-80
2022/01/13 00:41:01;;;;;;;34.78;14.38;;;-6.30;99.90;;;;;;5092319;28;20371;-79
2022/01/13 00:43:27;;;;;;;37.33;15.02;;;-6.20;99.90;;;;;;5092824;28;20012;-78
2022/01/13 00:45:53;;;;;;;42.78;15.88;;;-6.20;99.90;;;;;;5093622;28;20083;-79
2022/01/13 00:48:19;;;;;;;38.25;14.93;;;-6.20;99.90;;;;;;5093469;28;20024;-79
2022/01/13 00:50:45;;;;;;;36.17;16.00;;;-6.20;99.90;;;;;;5093434;28;20020;-79
2022/01/13 00:53:10;;;;;;;42.10;16.45;;;-6.20;99.90;;;;;;5093549;28;20028;-80
2022/01/13 00:55:48;;;;;;;39.55;15.80;;;-6.20;99.90;;;;;;5092004;28;20127;-77
2022/01/13 00:58:15;;;;;;;35.55;16.00;;;-6.30;99.90;;;;;;5093574;28;20016;-76
2022/01/13 01:00:42;;;;;;;34.17;15.55;;;-6.20;99.90;;;;;;5092120;28;20035;-77
2022/01/13 01:03:09;;;;;;;38.42;16.67;;;-6.30;99.90;;;;;;5092376;28;20047;-79
2022/01/13 01:05:36;;;;;;;36.30;16.15;;;-6.30;99.90;;;;;;5094381;28;20016;-78
2022/01/13 01:08:06;;;;;;;37.60;15.68;;;-6.30;99.90;;;;;;5097416;28;20456;-81
2022/01/13 01:10:33;;;;;;;36.08;15.98;;;-6.30;99.90;;;;;;5096373;28;20063;-79
2022/01/13 01:12:58;;;;;;;35.97;15.85;;;-6.30;99.90;;;;;;5097521;28;20474;-78
2022/01/13 01:15:25;;;;;;;30.02;14.02;;;-6.40;99.90;;;;;;5096367;28;20036;-80
2022/01/13 01:17:57;;;;;;;35.10;15.23;;;-6.40;99.90;;;;;;5096167;28;20353;-80
2022/01/13 01:20:29;;;;;;;38.33;14.02;;;-6.50;99.90;;;;;;5097345;28;20059;-78
2022/01/13 01:23:11;;;;;;;31.42;16.23;;;-6.50;99.90;;;;;;5096589;28;20379;-79
2022/01/13 01:25:45;;;;;;;42.67;16.60;;;-6.50;99.90;;;;;;5096253;28;20028;-81
2022/01/13 01:28:17;;;;;;;34.67;15.25;;;-6.50;99.90;;;;;;5096610;28;20123;-79
2022/01/13 01:30:46;;;;;;;31.42;13.77;;;-6.60;99.90;;;;;;5098538;28;20020;-78
2022/01/13 01:33:16;;;;;;;32.00;14.48;;;-6.60;99.90;;;;;;5096609;28;20042;-80
2022/01/13 01:35:42;;;;;;;34.05;16.15;;;-6.60;99.90;;;;;;5095966;28;20544;-79
2022/01/13 01:38:09;;;;;;;32.20;14.57;;;-6.70;99.90;;;;;;5096014;28;20051;-79
2022/01/13 01:40:34;;;;;;;31.63;15.07;;;-6.70;99.90;;;;;;5097774;28;20016;-79
2022/01/13 01:43:00;;;;;;;31.95;13.82;;;-6.70;99.90;;;;;;5095887;28;20024;-76
2022/01/13 01:45:32;;;;;;;35.42;15.30;;;-6.70;99.90;;;;;;5097166;28;20024;-78
2022/01/13 01:47:58;;;;;;;39.53;15.93;;;-6.80;99.90;;;;;;5096187;28;20020;-80
2022/01/13 01:50:24;;;;;;;32.75;15.65;;;-6.70;99.90;;;;;;5096715;28;20429;-78
2022/01/13 01:52:52;;;;;;;35.42;15.30;;;-6.70;99.90;;;;;;5095656;28;20024;-80
2022/01/13 01:55:19;;;;;;;34.38;15.45;;;-6.80;99.90;;;;;;5095560;28;20044;-77
2022/01/13 01:57:48;;;;;;;34.80;14.27;;;-6.80;99.90;;;;;;5096509;28;20051;-78
2022/01/13 02:00:16;;;;;;;32.47;13.90;;;-6.80;99.90;;;;;;5095902;28;20032;-78
2022/01/13 02:02:45;;;;;;;35.08;15.55;;;-6.90;99.90;;;;;;5095237;28;20043;-79
2022/01/13 02:05:11;;;;;;;28.65;12.50;;;-6.90;99.90;;;;;;5096791;28;20373;-78
2022/01/13 02:07:37;;;;;;;30.70;13.32;;;-6.90;99.90;;;;;;5096530;28;20027;-78
2022/01/13 02:10:04;;;;;;;33.88;15.80;;;-7.00;99.90;;;;;;5095006;28;20020;-80
2022/01/13 02:12:38;;;;;;;31.50;13.40;;;-6.90;99.90;;;;;;5095101;28;20152;-78
2022/01/13 02:17:38;;;;;;;34.22;14.55;;;-7.00;99.90;;;;;;5095063;28;20029;-80
2022/01/13 02:20:06;;;;;;;35.20;15.02;;;-7.00;99.90;;;;;;5095068;28;20099;-79
2022/01/13 02:22:31;;;;;;;31.98;13.60;;;-7.00;99.90;;;;;;5096030;28;20028;-79
2022/01/13 02:24:58;;;;;;;31.55;13.73;;;-7.00;99.90;;;;;;5094808;28;20020;-80
2022/01/13 02:27:23;;;;;;;26.30;12.60;;;-7.00;99.90;;;;;;5094750;28;20392;-78
2022/01/13 02:29:50;;;;;;;34.80;14.18;;;-7.00;99.90;;;;;;5096085;28;20017;-80
2022/01/13 02:32:18;;;;;;;38.33;14.77;;;;;;;;;;5094800;28;20012;-78
2022/01/13 02:34:44;;;;;;;32.58;14.35;;;-7.00;99.90;;;;;;5095907;28;20028;-80
2022/01/13 02:37:10;;;;;;;32.03;15.18;;;-6.90;99.90;;;;;;5095764;28;20028;-79
2022/01/13 02:39:37;;;;;;;31.08;13.35;;;-7.00;99.90;;;;;;5095710;28;20089;-79
2022/01/13 02:42:11;;;;;;;35.80;14.05;;;-7.00;99.90;;;;;;5094604;28;20074;-80
2022/01/13 02:44:59;;;;;;;35.08;15.85;;;-7.00;99.90;;;;;;5095495;28;20475;-81
2022/01/13 02:47:47;;;;;;;39.40;16.10;;;-7.00;99.90;;;;;;5079843;28;20028;-79
2022/01/13 02:50:12;;;;;;;36.17;14.02;;;-7.00;99.90;;;;;;5094385;28;20030;-79
2022/01/13 02:52:38;;;;;;;33.10;14.15;;;-7.10;99.90;;;;;;5093840;28;20452;-78
2022/01/13 02:55:06;;;;;;;34.92;14.52;;;-7.10;99.90;;;;;;5095272;28;20043;-81
2022/01/13 02:57:32;;;;;;;31.55;12.75;;;-7.10;99.90;;;;;;5095350;28;20048;-78
2022/01/13 02:59:58;;;;;;;35.22;13.80;;;-7.20;99.90;;;;;;5094174;28;20028;-78
2022/01/13 03:02:30;;;;;;;35.03;13.85;;;-7.20;99.90;;;;;;5094372;28;20149;-78
2022/01/13 03:04:55;;;;;;;32.58;14.60;;;-7.20;99.90;;;;;;5093957;28;20027;-78
2022/01/13 03:07:21;;;;;;;31.85;13.88;;;-7.30;99.90;;;;;;5093883;28;20024;-79
2022/01/13 03:09:47;;;;;;;34.13;14.32;;;-7.40;99.90;;;;;;5095901;28;20047;-85
2022/01/13 03:12:13;;;;;;;39.83;14.93;;;-7.30;99.90;;;;;;5095370;28;20127;-82
2022/01/13 03:14:38;;;;;;;29.30;15.07;;;-7.20;99.90;;;;;;5095314;28;20032;-78
2022/01/13 03:17:05;;;;;;;36.40;15.30;;;-7.30;99.90;;;;;;5095103;28;20031;-77
2022/01/13 03:19:31;;;;;;;30.40;12.88;;;-7.30;99.90;;;;;;5093880;28;20111;-78
2022/01/13 03:21:56;;;;;;;34.17;15.57;;;-7.40;99.90;;;;;;5095270;28;20067;-78
2022/01/13 03:24:22;;;;;;;39.97;14.00;;;-7.40;99.90;;;;;;5095219;28;20067;-78
2022/01/13 03:26:49;;;;;;;32.70;13.13;;;-7.40;99.90;;;;;;5093797;28;20074;-78
2022/01/13 03:29:17;;;;;;;38.85;15.52;;;-7.40;99.90;;;;;;5093214;28;20074;-80
2022/01/13 03:31:44;;;;;;;31.42;14.18;;;-7.50;99.90;;;;;;5095321;28;20024;-79
2022/01/13 03:34:11;;;;;;;33.50;14.20;;;-7.40;99.90;;;;;;5093462;28;20352;-78
2022/01/13 03:36:37;;;;;;;37.30;14.70;;;-7.40;99.90;;;;;;5094597;28;20040;-78
2022/01/13 03:39:05;;;;;;;37.33;15.13;;;-7.40;99.90;;;;;;5093293;28;20020;-78
2022/01/13 03:41:31;;;;;;;36.05;14.75;;;-7.40;99.90;;;;;;5093312;28;20035;-77
2022/01/13 03:44:03;;;;;;;36.20;14.40;;;-7.40;99.90;;;;;;5094876;28;20027;-78
2022/01/13 03:46:29;;;;;;;33.75;13.95;;;-7.40;99.90;;;;;;5094791;28;20371;-78
2022/01/13 03:48:55;;;;;;;33.13;13.63;;;-7.40;99.90;;;;;;5093335;28;20016;-78
2022/01/13 03:51:21;;;;;;;24.98;13.25;;;-7.40;99.90;;;;;;5093494;28;20349;-79
2022/01/13 03:54:22;;;;;;;35.75;13.43;;;-7.40;99.90;;;;;;5093297;28;20101;-80
2022/01/13 03:57:06;;;;;;;41.13;14.18;;;-7.30;99.90;;;;;;5068267;28;20044;-78
2022/01/13 03:59:57;;;;;;;30.58;12.30;;;-7.40;99.90;;;;;;5094527;28;20464;-77
2022/01/13 04:02:23;;;;;;;33.53;12.95;;;-7.40;99.90;;;;;;5093283;28;20574;-79
2022/01/13 04:04:49;;;;;;;27.38;13.45;;;-7.50;99.90;;;;;;5094074;28;20057;-79
2022/01/13 04:07:21;;;;;;;33.58;14.35;;;-7.50;99.90;;;;;;5093058;28;20488;-79
2022/01/13 04:09:46;;;;;;;29.63;13.85;;;-7.60;99.90;;;;;;5093194;28;20024;-80
2022/01/13 04:12:14;;;;;;;38.58;14.93;;;-7.50;99.90;;;;;;5093108;28;20023;-78
2022/01/13 04:14:47;;;;;;;32.72;13.55;;;-7.50;99.90;;;;;;5093925;28;20028;-79
2022/01/13 04:17:19;;;;;;;33.28;14.95;;;-7.50;99.90;;;;;;5092960;28;20035;-78
2022/01/13 04:19:46;;;;;;;33.53;14.85;;;-7.50;99.90;;;;;;5092802;28;20379;-78
2022/01/13 04:22:12;;;;;;;44.88;14.75;;;-7.50;99.90;;;;;;5092720;28;20024;-77
2022/01/13 04:24:42;;;;;;;33.80;13.38;;;-7.50;99.90;;;;;;5093933;28;20023;-78
2022/01/13 04:27:09;;;;;;;38.53;15.32;;;-7.60;99.90;;;;;;5092455;28;20030;-78
2022/01/13 04:29:38;;;;;;;36.83;13.40;;;-7.60;99.90;;;;;;5092799;28;20424;-78
2022/01/13 04:32:05;;;;;;;31.83;13.88;;;-7.60;99.90;;;;;;5092585;28;20500;-77
2022/01/13 04:34:31;;;;;;;34.17;13.55;;;-7.50;99.90;;;;;;5092363;28;20024;-77
2022/01/13 04:36:58;;;;;;;34.30;14.23;;;-7.60;99.90;;;;;;5093741;28;20034;-79
2022/01/13 04:39:25;;;;;;;33.50;14.68;;;-7.60;99.90;;;;;;5091424;28;20081;-78
2022/01/13 04:41:53;;;;;;;33.88;15.50;;;-7.60;99.90;;;;;;5092590;28;20027;-79
2022/01/13 04:44:21;;;;;;;42.83;17.27;;;-7.60;99.90;;;;;;5093262;28;20020;-79
2022/01/13 04:46:48;;;;;;;42.85;18.58;;;-7.60;99.90;;;;;;5093704;28;20016;-79
2022/01/13 04:49:14;;;;;;;47.85;21.67;;;-7.60;99.90;;;;;;5093477;28;20020;-79
2022/01/13 04:51:41;;;;;;;35.33;19.67;;;-7.60;99.90;;;;;;5094682;28;20031;-80
2022/01/13 04:54:07;;;;;;;39.15;16.05;;;-7.60;99.90;;;;;;5094926;28;20020;-79
2022/01/13 04:56:41;;;;;;;34.13;14.57;;;-7.50;99.90;;;;;;5092525;28;20387;-79
2022/01/13 04:59:08;;;;;;;48.42;15.88;;;-7.50;99.90;;;;;;5092809;28;20509;-80
2022/01/13 05:01:34;;;;;;;43.40;15.68;;;-7.50;99.90;;;;;;5092654;28;20027;-78
2022/01/13 05:04:00;;;;;;;31.48;14.10;;;-7.40;99.90;;;;;;5092239;28;20048;-79
2022/01/13 05:06:25;;;;;;;35.88;14.25;;;-7.40;99.90;;;;;;5093663;28;20441;-79
2022/01/13 05:08:51;;;;;;;33.10;15.10;;;-7.50;99.90;;;;;;5092331;28;20031;-78
2022/01/13 05:11:18;;;;;;;36.30;15.07;;;-7.50;99.90;;;;;;5092351;28;20109;-79
2022/01/13 05:13:45;;;;;;;36.97;14.93;;;-7.50;99.90;;;;;;5094158;28;20054;-78
2022/01/13 05:16:24;;;;;;;39.72;15.38;;;-7.50;99.90;;;;;;5095078;28;20039;-78
2022/01/13 05:22:28;;;;;;;31.58;15.02;;;-7.60;99.90;;;;;;5093680;28;20123;-79
2022/01/13 05:24:23;;;;;;;31.90;13.45;;;-7.60;99.90;;;;;;5075364;28;20044;-79
2022/01/13 05:26:49;;;;;;;31.05;13.00;;;-7.70;99.90;;;;;;5093096;28;20012;-78
2022/01/13 05:29:19;;;;;;;30.95;12.60;;;-7.70;99.90;;;;;;5091921;28;20059;-80
2022/01/13 05:31:45;;;;;;;42.67;14.63;;;-7.80;99.90;;;;;;5093378;28;20020;-79
2022/01/13 05:34:10;;;;;;;31.88;13.48;;;-7.80;99.90;;;;;;5092266;28;20456;-79
2022/01/13 05:36:36;;;;;;;41.85;14.48;;;-7.80;99.90;;;;;;5091601;28;20036;-80
2022/01/13 05:39:02;;;;;;;31.23;12.45;;;-7.80;99.90;;;;;;5092309;28;20049;-80
2022/01/13 05:41:28;;;;;;;33.15;14.85;;;-7.80;99.90;;;;;;5092936;28;20119;-78
2022/01/13 05:43:54;;;;;;;36.00;14.38;;;-7.80;99.90;;;;;;5092277;28;20024;-80
2022/01/13 05:46:19;;;;;;;36.65;14.38;;;-7.80;99.90;;;;;;5093174;28;20470;-79
2022/01/13 05:48:45;;;;;;;30.08;13.60;;;-7.80;99.90;;;;;;5093149;28;20020;-78
2022/01/13 05:51:11;;;;;;;38.03;13.95;;;-7.70;99.90;;;;;;5093204;28;20054;-79
2022/01/13 05:53:36;;;;;;;33.58;14.73;;;-7.80;99.90;;;;;;5095648;28;20475;-79
2022/01/13 05:56:02;;;;;;;37.53;14.85;;;-7.80;99.90;;;;;;5095575;28;20031;-78
2022/01/13 05:58:28;;;;;;;32.05;14.57;;;-7.80;99.90;;;;;;5096712;28;20016;-78
2022/01/13 06:00:53;;;;;;;35.13;14.55;;;-7.80;99.90;;;;;;5095456;28;20115;-80
2022/01/13 06:03:19;;;;;;;31.13;13.77;;;-7.80;99.90;;;;;;5097160;28;20030;-79
2022/01/13 06:05:45;;;;;;;37.40;13.85;;;-7.80;99.90;;;;;;5097174;28;20058;-79
2022/01/13 06:08:10;;;;;;;34.58;14.52;;;-7.80;99.90;;;;;;5095941;28;20016;-80
2022/01/13 06:10:38;;;;;;;37.60;15.75;;;-7.10;99.90;;;;;;5095820;28;20035;-81
2022/01/13 06:13:04;;;;;;;35.30;14.63;;;-7.20;99.90;;;;;;5096520;28;20032;-82
2022/01/13 06:15:31;;;;;;;49.00;21.00;;;-7.30;99.90;;;;;;5098364;28;20394;-79
2022/01/13 06:17:57;;;;;;;34.20;14.85;;;-7.50;99.90;;;;;;5095404;28;20029;-80
2022/01/13 06:20:23;;;;;;;31.80;14.77;;;-7.60;99.90;;;;;;5095705;28;20360;-79
2022/01/13 06:22:50;;;;;;;39.28;15.57;;;-7.70;99.90;;;;;;5095739;28;20020;-80
2022/01/13 06:25:17;;;;;;;39.00;15.88;;;-7.70;99.90;;;;;;5095287;28;20020;-78
2022/01/13 06:27:44;;;;;;;34.17;15.13;;;-7.80;99.90;;;;;;5095123;28;20056;-78
2022/01/13 06:30:14;;;;;;;38.47;17.15;;;-7.70;99.90;;;;;;5096446;28;20017;-79
2022/01/13 06:32:40;;;;;;;34.78;16.33;;;-7.80;99.90;;;;;;5096509;28;20379;-78
2022/01/13 06:35:07;;;;;;;37.20;16.08;;;-7.80;99.90;;;;;;5096020;28;20467;-79
2022/01/13 06:37:32;;;;;;;44.17;17.05;;;-7.80;99.90;;;;;;5096017;28;20035;-78
2022/01/13 06:40:00;;;;;;;31.30;15.18;;;-7.70;99.90;;;;;;5095039;28;20375;-80
2022/01/13 06:42:25;;;;;;;37.08;15.50;;;-7.70;99.90;;;;;;5094913;28;20028;-79
2022/01/13 06:44:51;;;;;;;37.67;13.98;;;-7.70;99.90;;;;;;5094825;28;20442;-78
2022/01/13 06:47:17;;;;;;;35.92;15.50;;;-7.70;99.90;;;;;;5094675;28;20141;-79
2022/01/13 06:49:43;;;;;;;27.23;13.95;;;-7.60;99.90;;;;;;5096001;28;20034;-81
2022/01/13 06:52:09;;;;;;;37.13;15.52;;;-7.60;99.90;;;;;;5095118;28;20411;-81
2022/01/13 06:54:35;;;;;;;34.25;15.65;;;-7.60;99.90;;;;;;5095862;28;20035;-78
2022/01/13 06:57:01;;;;;;;36.85;15.10;;;-7.70;99.90;;;;;;5095078;28;20024;-79
2022/01/13 06:59:26;;;;;;;36.45;16.70;;;-7.70;99.90;;;;;;5096042;28;20024;-81
2022/01/13 07:01:52;;;;;;;34.35;16.10;;;-7.70;99.90;;;;;;5095909;28;20035;-81
2022/01/13 07:04:18;;;;;;;46.45;17.63;;;-7.70;99.90;;;;;;5095474;28;20023;-80
2022/01/13 07:06:45;;;;;;;41.42;16.90;;;-7.70;99.90;;;;;;5095788;28;20027;-81
2022/01/13 07:09:13;;;;;;;37.33;15.18;;;-7.60;99.90;;;;;;5096037;28;20069;-81
2022/01/13 07:11:39;;;;;;;35.13;16.15;;;-7.60;99.90;;;;;;5095771;28;20046;-80
2022/01/13 07:14:05;;;;;;;35.85;16.77;;;-7.60;99.90;;;;;;5094743;28;20051;-80
2022/01/13 07:16:31;;;;;;;40.63;15.45;;;-7.50;99.90;;;;;;5094578;28;20028;-81
2022/01/13 07:18:57;;;;;;;36.78;16.27;;;-7.50;99.90;;;;;;5095764;28;20020;-80
2022/01/13 07:21:26;;;;;;;36.53;15.93;;;-7.40;99.90;;;;;;5095844;28;20032;-81
2022/01/13 07:23:51;;;;;;;36.17;16.48;;;-7.40;99.90;;;;;;5094329;28;20480;-81
2022/01/13 07:26:17;;;;;;;55.15;17.92;;;-7.30;99.90;;;;;;5094183;28;20035;-81
2022/01/13 07:28:43;;;;;;;38.83;14.95;;;-7.20;99.90;;;;;;5094530;28;20072;-82
2022/01/13 07:31:08;;;;;;;31.92;15.88;;;-7.20;99.90;;;;;;5094407;28;20024;-79
2022/01/13 07:33:34;;;;;;;34.90;14.98;;;-7.10;99.90;;;;;;5095295;28;20020;-78
2022/01/13 07:36:00;;;;;;;39.65;16.17;;;-7.10;99.90;;;;;;5093673;28;20471;-78
2022/01/13 07:38:25;;;;;;;38.90;17.08;;;-7.10;99.90;;;;;;5093695;28;20081;-80
2022/01/13 07:40:52;;;;;;;40.10;17.08;;;-7.00;99.90;;;;;;5094184;28;20020;-80
2022/01/13 07:43:22;;;;;;;39.10;16.17;;;-7.00;99.90;;;;;;5093935;28;20023;-79
2022/01/13 07:45:52;;;;;;;38.00;15.77;;;-6.90;99.90;;;;;;5093965;28;20463;-80
2022/01/13 07:48:18;;;;;;;51.38;18.02;;;-6.90;99.90;;;;;;5093958;28;20032;-80
2022/01/13 07:50:43;;;;;;;39.75;17.35;;;-6.90;99.90;;;;;;5095122;28;20379;-80
2022/01/13 07:53:10;;;;;;;38.08;16.73;;;-6.80;99.90;;;;;;5093655;28;20108;-81
2022/01/13 07:55:36;;;;;;;45.75;18.05;;;-6.70;99.90;;;;;;5093722;28;20081;-81
2022/01/13 07:58:02;;;;;;;36.90;16.10;;;-6.60;99.90;;;;;;5094395;28;20430;-81
2022/01/13 08:00:28;;;;;;;41.45;16.08;;;-6.60;99.90;;;;;;5093597;28;20078;-82
2022/01/13 08:02:53;;;;;;;41.45;17.25;;;-6.50;99.90;;;;;;5095114;28;20372;-81
2022/01/13 08:05:19;;;;;;;33.38;16.15;;;-6.40;99.90;;;;;;5094025;28;20475;-80
2022/01/13 08:07:45;;;;;;;38.38;18.05;;;-6.30;99.90;;;;;;5095103;28;20020;-82
2022/01/13 08:10:11;;;;;;;42.50;16.80;;;-6.20;99.90;;;;;;5094839;28;20027;-81
2022/01/13 08:12:38;;;;;;;35.30;17.75;;;-6.10;99.90;;;;;;5094126;28;20023;-81
2022/01/13 08:15:08;;;;;;;42.70;16.65;;;-6.00;99.90;;;;;;5097508;28;20028;-82
2022/01/13 08:20:17;;;;;;;42.78;16.73;;;-5.80;99.90;;;;;;5098439;28;20073;-79
2022/01/13 08:22:43;;;;;;;45.03;17.98;;;-5.80;99.90;;;;;;5099467;28;20020;-83
2022/01/13 08:25:10;;;;;;;33.22;16.48;;;-5.70;99.90;;;;;;5097724;28;20008;-79
2022/01/13 08:27:35;;;;;;;42.47;17.80;;;-5.60;99.90;;;;;;5097207;28;20048;-81
2022/01/13 08:30:02;;;;;;;38.65;16.50;;;-5.50;99.90;;;;;;5094902;28;20107;-79
2022/01/13 08:32:27;;;;;;;40.22;16.80;;;-5.40;99.90;;;;;;5095207;28;20047;-81
2022/01/13 08:34:53;;;;;;;36.33;17.92;;;-5.40;99.90;;;;;;5093388;28;20031;-81
2022/01/13 08:37:19;;;;;;;35.72;16.50;;;-5.30;99.90;;;;;;5095114;28;20474;-80
2022/01/13 08:39:45;;;;;;;35.42;15.70;;;-5.10;99.90;;;;;;5095308;28;20112;-83
2022/01/13 08:42:14;;;;;;;35.28;16.95;;;-5.00;99.90;;;;;;5093960;28;20020;-77
2022/01/13 08:44:40;;;;;;;40.58;17.00;;;-4.90;99.90;;;;;;5092877;28;20021;-79
2022/01/13 08:47:07;;;;;;;34.08;16.10;;;-4.80;99.90;;;;;;5092885;28;20024;-79
2022/01/13 08:49:33;;;;;;;37.35;15.93;;;-4.60;99.90;;;;;;5091451;28;20116;-78
2022/01/13 08:51:59;;;;;;;40.00;18.50;;;-4.60;99.90;;;;;;5091597;28;20497;-78
2022/01/13 08:54:25;;;;;;;35.70;17.13;;;-4.50;99.90;;;;;;5092840;28;20031;-77
2022/01/13 08:56:51;;;;;;;39.70;17.15;;;-4.30;99.90;;;;;;5092881;28;20111;-79
2022/01/13 08:59:18;;;;;;;40.40;18.92;;;-4.20;99.90;;;;;;5092536;28;20409;-80
2022/01/13 09:01:44;;;;;;;42.67;18.42;;;-4.10;99.90;;;;;;5092236;28;20019;-79
2022/01/13 09:04:09;;;;;;;43.40;20.50;;;-3.90;99.90;;;;;;5092306;28;20024;-78
2022/01/13 09:06:36;;;;;;;40.90;18.65;;;-3.70;99.90;;;;;;5093735;28;20019;-81
2022/01/13 09:09:02;;;;;;;40.08;20.77;;;-3.60;99.90;;;;;;5093764;28;20027;-83
2022/01/13 09:11:29;;;;;;;42.70;21.13;;;-3.40;99.90;;;;;;5092812;28;20097;-81
2022/01/13 09:13:58;;;;;;;44.08;20.13;;;-3.30;99.90;;;;;;5094940;28;20044;-81
2022/01/13 09:16:26;;;;;;;48.30;20.02;;;-3.20;99.90;;;;;;5094611;28;20032;-85
2022/01/13 09:21:22;;;;;;;41.00;18.33;;;-3.00;99.90;;;;;;5095031;28;20050;-80
2022/01/13 09:23:48;;;;;;;43.90;22.75;;;-2.90;99.90;;;;;;5093814;28;20017;-79
2022/01/13 09:26:13;;;;;;;37.13;17.75;;;-2.80;99.90;;;;;;5094652;28;20498;-84
2022/01/13 09:28:39;;;;;;;32.83;15.93;;;-2.60;99.90;;;;;;5098486;28;20127;-81
2022/01/13 09:31:05;;;;;;;45.95;19.80;;;-2.50;99.90;;;;;;5095993;28;20038;-79
2022/01/13 09:33:32;;;;;;;41.10;18.38;;;-2.40;99.90;;;;;;5096522;28;20020;-82
2022/01/13 09:35:58;;;;;;;45.92;18.80;;;-2.40;99.90;;;;;;5094633;28;20063;-78
2022/01/13 09:38:24;;;;;;;35.55;16.70;;;-2.30;99.90;;;;;;5094894;28;20062;-79
2022/01/13 09:40:53;;;;;;;41.88;18.38;;;-2.20;99.90;;;;;;5094651;28;20885;-78
2022/01/13 09:43:25;;;;;;;37.72;19.65;;;-2.10;99.90;;;;;;5095784;28;20031;-85
2022/01/13 09:45:52;;;;;;;44.45;22.58;;;-2.10;99.90;;;;;;5098393;28;20028;-83
2022/01/13 09:48:18;;;;;;;32.38;15.23;;;-2.00;99.90;;;;;;5096894;28;20375;-80
2022/01/13 09:50:48;;;;;;;36.42;17.23;;;-2.00;99.90;;;;;;5095810;28;20085;-79
2022/01/13 09:53:17;;;;;;;37.25;16.60;;;-1.90;99.90;;;;;;5098028;28;20054;-84
2022/01/13 09:55:45;;;;;;;38.97;21.13;;;-1.80;99.90;;;;;;5097831;28;20089;-85
2022/01/13 09:58:11;;;;;;;31.73;16.95;;;-1.90;99.90;;;;;;5097243;28;20047;-84
2022/01/13 10:00:39;;;;;;;32.70;13.43;;;-1.90;99.90;;;;;;5099478;28;20052;-84
2022/01/13 10:03:17;;;;;;;30.52;15.25;;;-1.40;99.90;;;;;;5097908;28;20020;-82
2022/01/13 10:05:51;;;;;;;32.45;15.88;;;-0.20;99.90;;;;;;5096684;28;20036;-85
2022/01/13 10:08:19;;;;;;;31.00;16.38;;;0.00;99.90;;;;;;5096417;28;20027;-84
2022/01/13 10:10:44;;;;;;;30.08;16.05;;;-0.10;99.90;;;;;;5096255;28;20490;-82
2022/01/13 10:13:13;;;;;;;29.98;15.07;;;-0.30;99.90;;;;;;5096654;28;20028;-83
2022/01/13 10:18:43;;;;;;;30.92;15.82;;;-0.70;99.90;;;;;;5097684;28;20031;-86
2022/01/13 10:21:14;;;;;;;30.77;17.00;;;-0.50;99.90;;;;;;5096717;28;20064;-86
2022/01/13 10:24:10;;;;;;;33.88;15.82;;;-0.60;99.90;;;;;;5098145;28;20020;-84
2022/01/13 10:26:36;;;;;;;36.55;17.45;;;-0.60;99.90;;;;;;5097202;28;20031;-84
2022/01/13 10:29:07;;;;;;;35.03;17.20;;;-0.60;99.90;;;;;;5095624;28;20044;-80
2022/01/13 10:31:51;;;;;;;34.70;17.30;;;-0.80;99.90;;;;;;5097238;28;20020;-81
2022/01/13 10:34:30;;;;;;;34.97;16.33;;;-0.80;99.90;;;;;;5100043;28;20043;-82
2022/01/13 10:36:59;;;;;;;32.03;16.50;;;-0.70;99.90;;;;;;5094623;28;20379;-80
2022/01/13 10:39:53;;;;;;;28.90;15.88;;;-0.60;99.90;;;;;;5095976;28;20055;-78
2022/01/13 10:45:17;;;;;;;38.72;18.83;;;-0.40;99.90;;;;;;5095798;28;20047;-78
2022/01/13 10:47:54;;;;;;;35.25;17.73;;;-0.30;99.90;;;;;;5095600;28;20418;-85
2022/01/13 10:50:20;;;;;;;31.60;16.80;;;-0.20;99.90;;;;;;5097003;28;20535;-82
2022/01/13 10:52:49;;;;;;;32.22;16.02;;;-0.20;99.90;;;;;;5095131;28;20036;-82
2022/01/13 10:55:18;;;;;;;36.53;15.95;;;-0.10;99.90;;;;;;5095516;28;20024;-84
2022/01/13 10:57:45;;;;;;;27.95;14.82;;;0.00;99.90;;;;;;5095520;28;20032;-80
2022/01/13 11:00:16;;;;;;;33.33;16.50;;;0.10;99.90;;;;;;5095555;28;20020;-81
2022/01/13 11:03:01;;;;;;;28.48;15.15;;;0.10;99.90;;;;;;5094841;28;20479;-83
2022/01/13 11:05:29;;;;;;;30.25;14.77;;;0.30;99.90;;;;;;5095091;28;20028;-81
2022/01/13 11:07:59;;;;;;;30.73;14.48;;;0.30;99.90;;;;;;5094640;28;20035;-83
2022/01/13 11:10:25;;;;;;;27.52;14.73;;;0.40;99.90;;;;;;5095980;28;20570;-84
2022/01/13 11:12:57;;;;;;;31.15;15.45;;;0.50;99.90;;;;;;5096066;28;20024;-82
2022/01/13 11:15:24;;;;;;;27.58;14.02;;;0.50;99.90;;;;;;5096365;28;20043;-84
2022/01/13 11:17:57;;;;;;;26.55;14.63;;;0.50;99.90;;;;;;5095815;28;20020;-84
2022/01/13 11:20:24;;;;;;;35.05;16.65;;;0.60;99.90;;;;;;5096365;28;20021;-83
2022/01/13 11:22:52;;;;;;;22.33;12.40;;;0.70;99.90;;;;;;5096709;28;20031;-83
2022/01/13 11:25:23;;;;;;;27.45;13.70;;;0.80;99.90;;;;;;5095520;28;20103;-85
2022/01/13 11:27:53;;;;;;;23.13;12.52;;;0.90;99.90;;;;;;5096184;28;20055;-83
2022/01/13 11:30:22;;;;;;;23.15;13.43;;;1.00;99.90;;;;;;5096147;28;20023;-83
2022/01/13 11:32:49;;;;;;;23.15;12.95;;;1.10;99.90;;;;;;5096216;28;20024;-84
2022/01/13 11:35:28;;;;;;;31.33;15.05;;;1.20;99.90;;;;;;5097609;28;20040;-84
2022/01/13 11:37:56;;;;;;;28.00;13.82;;;1.30;99.90;;;;;;5096050;28;20020;-86
2022/01/13 11:40:27;;;;;;;29.00;13.30;;;1.50;99.90;;;;;;5096070;28;20020;-87
2022/01/13 11:42:58;;;;;;;30.67;14.35;;;1.60;99.90;;;;;;5097975;28;20054;-84
2022/01/13 11:45:24;;;;;;;34.85;14.73;;;1.70;99.90;;;;;;5096444;28;20069;-84
2022/01/13 11:48:10;;;;;;;24.83;14.70;;;1.80;99.90;;;;;;5097372;28;20030;-84
2022/01/13 11:50:43;;;;;;;25.90;12.45;;;2.00;99.90;;;;;;5096385;28;20127;-84
2022/01/13 11:53:31;;;;;;;28.02;13.75;;;2.00;99.80;;;;;;5096674;28;20108;-85
2022/01/13 11:56:00;;;;;;;25.45;12.48;;;2.20;97.10;;;;;;5096191;28;20032;-84
2022/01/13 11:58:39;;;;;;;23.33;12.60;;;2.30;95.90;;;;;;5096065;28;20016;-83
2022/01/13 12:01:16;;;;;;;26.05;12.93;;;2.40;95.20;;;;;;5097499;28;20020;-87
2022/01/13 12:03:46;;;;;;;24.40;12.40;;;2.40;94.90;;;;;;5096128;28;20024;-85
2022/01/13 12:06:31;;;;;;;23.08;11.18;;;2.40;93.20;;;;;;5096025;28;20090;-85
2022/01/13 12:08:58;;;;;;;27.80;11.60;;;2.50;92.40;;;;;;5096057;28;20056;-84
2022/01/13 12:11:42;;;;;;;19.08;10.25;;;2.50;91.70;;;;;;5096375;28;20031;-84
2022/01/13 12:14:23;;;;;;;29.30;13.63;;;2.60;90.40;;;;;;5096273;28;20030;-85
2022/01/13 12:17:07;;;;;;;27.17;12.82;;;2.60;90.10;;;;;;5095792;28;20031;-84
2022/01/13 12:19:47;;;;;;;32.15;14.70;;;2.60;90.00;;;;;;5095913;28;20034;-84
2022/01/13 12:22:24;;;;;;;27.05;12.13;;;2.60;89.90;;;;;;5096330;28;20484;-84
2022/01/13 12:24:59;;;;;;;60.97;28.42;;;2.60;88.90;;;;;;5096537;28;20059;-84
2022/01/13 12:27:43;;;;;;;45.88;21.65;;;2.50;90.00;;;;;;5097557;28;20060;-85
2022/01/13 12:30:12;;;;;;;35.13;18.80;;;2.50;90.10;;;;;;5095951;28;20092;-85
2022/01/13 12:32:47;;;;;;;32.05;19.23;;;2.60;90.60;;;;;;5096046;28;20038;-83
2022/01/13 12:35:33;;;;;;;22.77;13.52;;;2.60;90.40;;;;;;5094892;28;20073;-84
2022/01/13 12:38:07;;;;;;;24.83;11.05;;;2.70;89.70;;;;;;5095078;28;20024;-79
2022/01/13 12:40:41;;;;;;;22.65;11.18;;;2.70;90.10;;;;;;5092193;28;20024;-73
2022/01/13 12:46:09;;;;;;;20.42;11.10;;;2.80;87.10;;;;;;5092907;28;20027;-73
2022/01/13 12:48:36;;;;;;;20.38;11.18;;;2.80;87.90;;;;;;5092741;28;20031;-74
2022/01/13 12:51:03;;;;;;;19.45;10.05;;;2.90;88.30;;;;;;5092333;28;20028;-74
2022/01/13 12:53:32;;;;;;;20.45;12.23;;;2.90;88.90;;;;;;5092539;28;20087;-74
2022/01/13 12:56:00;;;;;;;16.05;8.45;;;3.00;88.90;;;;;;5091286;28;20453;-73